Terminal Aerodrome Forecast
Issued by NWS Upton, NY

Current Version | Previous Version | Text Only | Print | Product List | Glossary On
Versions: 1 2 3 4 5 6 7 8 9 10 11 12 13 14 15 16 17 18 19 20 21 22 23 24 25 26 27 28 29
000
FTUS41 KOKX 312332
TAFLGA
TAF
KLGA 312332Z 0100/0124 27008KT P6SM SCT250
     FM011000 03005KT P6SM FEW050
     FM011300 05008KT P6SM FEW050
     FM011900 17009KT P6SM SKC=

USA.gov is the U.S. government's official web portal to all federal, state and local government web resources and services.